createdAt,value
2023-04-16T00:01:22.459Z,13.07
2023-04-16T00:04:25.560Z,13.27
2023-04-16T00:07:28.659Z,13.40
2023-04-16T00:10:31.644Z,12.83
2023-04-16T00:13:35.918Z,12.37
2023-04-16T00:16:39.383Z,12.73
2023-04-16T00:19:42.327Z,12.87
2023-04-16T00:22:45.325Z,13.57
2023-04-16T00:25:48.564Z,12.63
2023-04-16T00:28:52.845Z,12.67
2023-04-16T00:31:55.818Z,12.43
2023-04-16T00:34:58.762Z,13.87
2023-04-16T00:38:01.699Z,11.97
2023-04-16T00:41:04.719Z,11.83
2023-04-16T00:44:09.006Z,12.20
2023-04-16T00:47:12.641Z,12.63
2023-04-16T00:50:26.371Z,12.10
2023-04-16T00:53:29.940Z,12.13
2023-04-16T00:56:34.254Z,12.50
2023-04-16T00:59:38.740Z,11.90
2023-04-16T01:02:42.470Z,13.60
2023-04-16T01:05:49.214Z,11.63
2023-04-16T01:08:52.229Z,11.17
2023-04-16T01:11:55.195Z,11.53
2023-04-16T01:14:59.606Z,11.07
2023-04-16T01:18:02.650Z,12.40
2023-04-16T01:21:07.241Z,12.07
2023-04-16T01:24:10.275Z,12.03
2023-04-16T01:27:13.238Z,11.77
2023-04-16T01:30:16.369Z,11.27
2023-04-16T01:33:19.995Z,12.10
2023-04-16T01:36:24.283Z,11.10
2023-04-16T01:39:27.245Z,11.83
2023-04-16T01:42:30.268Z,11.13
2023-04-16T01:45:34.086Z,10.23
2023-04-16T01:48:37.127Z,12.10
2023-04-16T01:51:42.039Z,11.60
2023-04-16T01:54:45.017Z,11.00
2023-04-16T01:57:47.996Z,11.37
2023-04-16T02:00:51.058Z,10.50
2023-04-16T02:03:54.209Z,10.83
2023-04-16T02:06:58.675Z,10.87
2023-04-16T02:10:01.680Z,10.93
2023-04-16T02:13:04.874Z,11.17
2023-04-16T02:16:08.908Z,10.93
2023-04-16T02:19:11.874Z,10.90
2023-04-16T02:22:16.180Z,9.70
2023-04-16T02:25:19.539Z,10.33
2023-04-16T02:28:22.503Z,11.07
2023-04-16T02:31:25.620Z,11.43
2023-04-16T02:34:28.726Z,10.47
2023-04-16T02:37:33.022Z,10.63
2023-04-16T02:40:36.257Z,10.07
2023-04-16T02:43:39.192Z,10.30
2023-04-16T02:46:42.209Z,10.97
2023-04-16T02:49:45.286Z,10.57
2023-04-16T02:52:49.585Z,11.33
2023-04-16T02:55:53.759Z,11.80
2023-04-16T02:58:56.737Z,11.53
2023-04-16T03:01:59.823Z,11.47
2023-04-16T03:05:03.128Z,11.97
2023-04-16T03:08:07.818Z,11.63
2023-04-16T03:11:10.811Z,11.20
2023-04-16T03:14:13.801Z,11.60
2023-04-16T03:17:16.965Z,11.53
2023-04-16T03:20:20.112Z,11.37
2023-04-16T03:23:24.453Z,12.00
2023-04-16T03:26:27.399Z,12.10
2023-04-16T03:29:30.343Z,11.47
2023-04-16T03:32:33.407Z,12.20
2023-04-16T03:35:36.380Z,12.13
2023-04-16T03:38:40.922Z,12.13
2023-04-16T03:41:43.890Z,12.77
2023-04-16T03:44:46.852Z,12.43
2023-04-16T03:47:52.658Z,12.80
2023-04-16T03:50:55.849Z,13.13
2023-04-16T03:54:00.157Z,14.07
2023-04-16T03:57:03.117Z,12.17
2023-04-16T04:00:07.474Z,11.93
2023-04-16T04:03:11.027Z,11.60
2023-04-16T04:06:14.258Z,12.30
2023-04-16T04:09:18.544Z,12.67
2023-04-16T04:12:21.524Z,12.47
2023-04-16T04:15:24.499Z,11.67
2023-04-16T04:18:27.520Z,12.50
2023-04-16T04:21:31.469Z,13.17
2023-04-16T04:24:35.862Z,11.40
2023-04-16T04:27:38.846Z,12.60
2023-04-16T04:30:41.998Z,14.17
2023-04-16T04:33:45.708Z,12.90
2023-04-16T04:36:48.656Z,12.53
2023-04-16T04:39:52.931Z,12.77
2023-04-16T04:42:56.027Z,12.57
2023-04-16T04:45:59.044Z,11.80
2023-04-16T04:49:02.042Z,11.93
2023-04-16T04:52:06.111Z,12.70
2023-04-16T04:55:11.225Z,11.50
2023-04-16T04:58:14.203Z,12.53
2023-04-16T05:01:17.277Z,12.23
2023-04-16T05:04:20.375Z,11.60
2023-04-16T05:07:23.406Z,11.93
2023-04-16T05:10:28.364Z,11.30
2023-04-16T05:13:31.292Z,12.07
2023-04-16T05:16:37.090Z,11.43
2023-04-16T05:19:40.072Z,11.93
2023-04-16T05:22:43.034Z,11.77
2023-04-16T05:25:47.340Z,12.73
2023-04-16T05:28:50.298Z,12.17
2023-04-16T05:31:53.457Z,11.90
2023-04-16T05:34:56.394Z,12.10
2023-04-16T05:37:59.325Z,12.23
2023-04-16T05:41:03.989Z,12.63
2023-04-16T05:44:06.912Z,11.87
2023-04-16T05:47:09.879Z,11.93
2023-04-16T05:50:12.826Z,11.93
2023-04-16T05:53:16.309Z,11.73
2023-04-16T05:56:20.882Z,12.47
2023-04-16T05:59:23.866Z,12.50
2023-04-16T06:02:27.096Z,11.90
2023-04-16T06:05:30.537Z,12.93
2023-04-16T06:08:33.494Z,11.87
2023-04-16T06:11:37.848Z,12.67
2023-04-16T06:14:40.786Z,12.33
2023-04-16T06:17:43.815Z,12.93
2023-04-16T06:20:46.819Z,12.67
2023-04-16T06:23:49.779Z,11.80
2023-04-16T06:26:54.335Z,12.37
2023-04-16T06:29:58.395Z,12.13
2023-04-16T06:33:01.494Z,12.03
2023-04-16T06:36:04.745Z,12.43
2023-04-16T06:39:07.958Z,12.57
2023-04-16T06:42:12.391Z,11.60
2023-04-16T06:45:15.452Z,13.07
2023-04-16T06:48:18.388Z,12.23
2023-04-16T06:51:21.614Z,11.53
2023-04-16T06:54:24.631Z,12.43
2023-04-16T06:57:28.952Z,11.20
2023-04-16T07:00:31.919Z,11.70
2023-04-16T07:03:35.187Z,11.50
2023-04-16T07:06:38.367Z,12.10
2023-04-16T07:09:41.664Z,11.20
2023-04-16T07:12:46.150Z,11.87
2023-04-16T07:15:49.173Z,10.77
2023-04-16T07:18:52.187Z,10.73
2023-04-16T07:21:55.408Z,11.50
2023-04-16T07:24:58.405Z,11.43
2023-04-16T07:28:02.951Z,11.53
2023-04-16T07:31:06.135Z,11.60
2023-04-16T07:34:09.128Z,12.10
2023-04-16T07:37:12.089Z,11.30
2023-04-16T07:40:15.219Z,12.03
2023-04-16T07:43:19.521Z,11.37
2023-04-16T07:46:24.723Z,11.17
2023-04-16T07:49:27.947Z,11.00
2023-04-16T07:52:30.978Z,11.10
2023-04-16T07:55:33.917Z,11.80
2023-04-16T07:58:38.225Z,11.47
2023-04-16T08:01:41.448Z,11.43
2023-04-16T08:04:44.985Z,11.30
2023-04-16T08:07:48.206Z,11.50
2023-04-16T08:10:55.537Z,11.07
2023-04-16T08:13:59.835Z,11.23
2023-04-16T08:17:02.792Z,11.07
2023-04-16T08:20:06.933Z,10.77
2023-04-16T08:23:09.897Z,11.30
2023-04-16T08:26:12.852Z,10.30
2023-04-16T08:29:17.147Z,9.93
2023-04-16T08:32:20.676Z,10.97
2023-04-16T08:35:24.038Z,11.13
2023-04-16T08:38:27.192Z,10.70
2023-04-16T08:41:33.126Z,9.77
2023-04-16T08:44:45.675Z,9.90
2023-04-16T08:47:51.059Z,10.60
2023-04-16T08:50:55.754Z,9.87
2023-04-16T08:54:04.262Z,10.47
2023-04-16T08:57:10.676Z,10.60
2023-04-16T09:00:16.786Z,9.97
2023-04-16T09:03:21.608Z,10.20
2023-04-16T09:06:24.907Z,10.33
2023-04-16T09:09:28.177Z,10.33
2023-04-16T09:12:31.772Z,10.40
2023-04-16T09:15:37.145Z,9.40
2023-04-16T09:18:40.278Z,10.23
2023-04-16T09:21:46.591Z,9.50
2023-04-16T09:24:49.565Z,9.20
2023-04-16T09:27:52.678Z,11.10
2023-04-16T09:31:14.000Z,10.03
2023-04-16T09:34:16.973Z,9.40
2023-04-16T09:37:20.214Z,9.93
2023-04-16T09:40:26.108Z,9.07
2023-04-16T09:43:29.120Z,10.37
2023-04-16T09:46:36.118Z,8.90
2023-04-16T09:49:43.196Z,9.70
2023-04-16T09:52:49.084Z,9.30
2023-04-16T09:55:52.110Z,9.27
2023-04-16T09:58:58.604Z,8.70
2023-04-16T10:02:14.267Z,10.03
2023-04-16T10:05:21.136Z,9.40
2023-04-16T10:08:25.334Z,9.80
2023-04-16T10:11:28.358Z,11.17
2023-04-16T10:14:31.321Z,9.23
2023-04-16T10:17:36.913Z,9.20
2023-04-16T10:20:40.327Z,11.43
2023-04-16T10:23:44.636Z,9.93
2023-04-16T10:26:51.113Z,9.77
2023-04-16T10:29:54.194Z,9.30
2023-04-16T10:33:00.568Z,9.53
2023-04-16T10:36:09.672Z,9.50
2023-04-16T10:39:16.828Z,9.37
2023-04-16T10:42:21.750Z,9.43
2023-04-16T10:45:32.627Z,9.43
2023-04-16T10:48:48.713Z,10.57
2023-04-16T10:51:57.120Z,8.57
2023-04-16T10:55:01.632Z,9.70
2023-04-16T10:58:29.832Z,9.37
2023-04-16T11:01:37.616Z,9.73
2023-04-16T11:04:45.280Z,9.50
2023-04-16T11:07:50.054Z,9.60
2023-04-16T11:10:53.341Z,9.23
2023-04-16T11:13:57.644Z,8.73
2023-04-16T11:17:04.487Z,9.50
2023-04-16T11:20:19.059Z,9.37
2023-04-16T11:23:23.674Z,9.67
2023-04-16T11:26:28.352Z,10.23
2023-04-16T11:29:31.324Z,9.80
2023-04-16T11:32:35.204Z,9.93
2023-04-16T11:35:41.167Z,10.43
2023-04-16T11:38:44.202Z,10.07
2023-04-16T11:41:48.588Z,10.30
2023-04-16T11:44:55.769Z,10.77
2023-04-16T11:47:58.877Z,9.60
2023-04-16T11:51:03.275Z,9.17
2023-04-16T11:54:09.639Z,8.27
2023-04-16T11:57:14.308Z,8.70
2023-04-16T12:00:17.961Z,8.33
2023-04-16T12:03:39.656Z,8.10
2023-04-16T12:07:08.072Z,8.23
2023-04-16T12:10:11.727Z,8.83
2023-04-16T12:13:15.807Z,8.97
2023-04-16T12:16:21.462Z,8.93
2023-04-16T12:19:24.629Z,8.60
2023-04-16T12:22:31.030Z,8.63
2023-04-16T12:25:34.013Z,8.53
2023-04-16T12:28:39.308Z,9.60
2023-04-16T12:31:42.354Z,9.97
2023-04-16T12:34:51.497Z,9.17
2023-04-16T12:37:55.826Z,9.37
2023-04-16T12:40:58.896Z,9.17
2023-04-16T12:44:06.686Z,9.43
2023-04-16T12:47:09.648Z,9.43
2023-04-16T12:50:12.607Z,9.07
2023-04-16T12:53:16.984Z,8.87
2023-04-16T12:56:21.261Z,9.17
2023-04-16T12:59:24.333Z,9.00
2023-04-16T13:02:28.344Z,9.10
2023-04-16T13:05:31.403Z,9.17
2023-04-16T13:08:35.751Z,8.47
2023-04-16T13:11:38.770Z,8.87
2023-04-16T13:14:44.603Z,8.87
2023-04-16T13:17:48.078Z,9.10
2023-04-16T13:20:51.086Z,8.80
2023-04-16T13:23:55.476Z,11.10
2023-04-16T13:26:58.467Z,10.17
2023-04-16T13:30:01.418Z,10.10
2023-04-16T13:33:04.655Z,8.93
2023-04-16T13:36:08.005Z,10.13
2023-04-16T13:39:12.447Z,9.97
2023-04-16T13:42:15.604Z,9.20
2023-04-16T13:45:20.299Z,10.53
2023-04-16T13:48:23.520Z,9.90
2023-04-16T13:51:27.068Z,10.80
2023-04-16T13:54:31.526Z,9.20
2023-04-16T13:57:34.601Z,9.93
2023-04-16T14:00:38.583Z,10.33
2023-04-16T14:03:42.107Z,9.87
2023-04-16T14:06:45.226Z,9.97
2023-04-16T14:09:49.577Z,10.03
2023-04-16T14:12:52.699Z,10.57
2023-04-16T14:15:55.779Z,9.70
2023-04-16T14:18:58.807Z,9.53
2023-04-16T14:22:01.841Z,9.50
2023-04-16T14:25:07.063Z,9.67
2023-04-16T14:28:10.013Z,9.13
2023-04-16T14:31:13.117Z,9.07
2023-04-16T14:34:16.654Z,9.43
2023-04-16T14:37:20.141Z,9.80
2023-04-16T14:40:24.738Z,9.47
2023-04-16T14:43:28.054Z,10.13
2023-04-16T14:46:33.545Z,9.90
2023-04-16T14:49:36.521Z,9.70
2023-04-16T14:52:39.528Z,10.57
2023-04-16T14:55:44.060Z,10.10
2023-04-16T14:58:47.029Z,9.07
2023-04-16T15:01:50.114Z,10.70
2023-04-16T15:04:53.247Z,10.73
2023-04-16T15:07:56.242Z,9.50
2023-04-16T15:11:00.508Z,10.67
2023-04-16T15:14:03.428Z,10.13
2023-04-16T15:17:06.657Z,9.73
2023-04-16T15:20:10.754Z,10.10
2023-04-16T15:23:13.733Z,10.57
2023-04-16T15:26:18.027Z,9.73
2023-04-16T15:29:21.144Z,10.53
2023-04-16T15:32:24.225Z,9.63
2023-04-16T15:35:27.177Z,9.97
2023-04-16T15:38:31.264Z,9.87
2023-04-16T15:41:46.891Z,10.03
2023-04-16T15:45:00.408Z,10.43
2023-04-16T15:48:05.375Z,10.17
2023-04-16T15:51:08.691Z,10.30
2023-04-16T15:54:11.672Z,10.27
2023-04-16T15:57:15.971Z,11.10
2023-04-16T16:00:19.736Z,10.80
2023-04-16T16:03:22.908Z,10.67
2023-04-16T16:06:27.131Z,11.30
2023-04-16T16:09:30.525Z,10.90
2023-04-16T16:12:35.036Z,11.17
2023-04-16T16:15:37.993Z,10.50
2023-04-16T16:18:42.058Z,11.00
2023-04-16T16:21:45.055Z,10.17
2023-04-16T16:24:49.023Z,10.70
2023-04-16T16:27:53.621Z,11.27
2023-04-16T16:30:58.675Z,11.57
2023-04-16T16:34:02.407Z,11.13
2023-04-16T16:37:05.642Z,10.83
2023-04-16T16:40:09.423Z,10.60
2023-04-16T16:43:13.973Z,11.00
2023-04-16T16:46:17.021Z,10.57
2023-04-16T16:49:20.032Z,11.40
2023-04-16T16:52:24.607Z,9.63
2023-04-16T16:55:27.719Z,10.40
2023-04-16T16:58:32.099Z,11.47
2023-04-16T17:01:35.476Z,11.20
2023-04-16T17:04:38.615Z,11.00
2023-04-16T17:07:41.645Z,10.30
2023-04-16T17:10:44.610Z,10.90
2023-04-16T17:13:48.937Z,10.30
2023-04-16T17:16:52.003Z,11.00
2023-04-16T17:19:55.097Z,10.70
2023-04-16T17:22:59.355Z,10.50
2023-04-16T17:26:02.291Z,11.07
2023-04-16T17:29:06.591Z,10.40
2023-04-16T17:32:09.690Z,10.27
2023-04-16T17:35:13.746Z,11.17
2023-04-16T17:38:16.731Z,10.50
2023-04-16T17:41:20.208Z,10.93
2023-04-16T17:44:25.669Z,12.20
2023-04-16T17:47:28.684Z,10.73
2023-04-16T17:50:31.666Z,10.80
2023-04-16T17:53:34.630Z,11.03
2023-04-16T17:56:37.733Z,11.07
2023-04-16T17:59:42.640Z,10.63
2023-04-16T18:02:45.733Z,11.30
2023-04-16T18:05:48.747Z,11.87
2023-04-16T18:08:51.705Z,11.23
2023-04-16T18:11:55.124Z,10.90
2023-04-16T18:14:59.452Z,10.87
2023-04-16T18:18:02.436Z,10.23
2023-04-16T18:21:05.470Z,10.87
2023-04-16T18:24:08.938Z,11.90
2023-04-16T18:27:12.604Z,10.80
2023-04-16T18:30:25.120Z,10.63
2023-04-16T18:33:52.564Z,12.07
2023-04-16T18:36:52.533Z,11.83
2023-04-16T18:39:57.897Z,11.23
2023-04-16T18:43:01.214Z,11.47
2023-04-16T18:46:06.081Z,12.13
2023-04-16T18:49:09.380Z,12.60
2023-04-16T18:52:12.740Z,10.97
2023-04-16T18:55:15.995Z,12.30
2023-04-16T18:58:19.030Z,12.00
2023-04-16T19:01:23.470Z,11.37
2023-04-16T19:04:26.628Z,12.53
2023-04-16T19:07:29.679Z,11.83
2023-04-16T19:10:32.709Z,11.10
2023-04-16T19:13:35.873Z,11.70
2023-04-16T19:16:41.664Z,11.33
2023-04-16T19:19:44.795Z,12.27
2023-04-16T19:22:47.900Z,10.63
2023-04-16T19:25:50.897Z,12.47
2023-04-16T19:28:53.930Z,11.57
2023-04-16T19:31:58.379Z,11.43
2023-04-16T19:35:01.477Z,11.40
2023-04-16T19:38:04.584Z,11.57
2023-04-16T19:41:07.595Z,12.03
2023-04-16T19:44:10.958Z,12.33
2023-04-16T19:47:15.415Z,11.50
2023-04-16T19:50:18.559Z,12.00
2023-04-16T19:53:22.058Z,11.77
2023-04-16T19:56:25.054Z,11.97
2023-04-16T19:59:28.669Z,12.63
2023-04-16T20:02:33.204Z,11.20
2023-04-16T20:05:36.428Z,12.53
2023-04-16T20:08:39.463Z,11.47
2023-04-16T20:11:42.436Z,11.67
2023-04-16T20:14:45.527Z,12.23
2023-04-16T20:17:49.943Z,11.37
2023-04-16T20:20:53.071Z,11.77
2023-04-16T20:23:56.339Z,11.77
2023-04-16T20:26:59.747Z,12.20
2023-04-16T20:30:03.984Z,11.80
2023-04-16T20:33:08.954Z,12.20
2023-04-16T20:36:12.188Z,11.67
2023-04-16T20:39:20.160Z,12.10
2023-04-16T20:42:23.206Z,11.10
2023-04-16T20:45:31.945Z,11.80
2023-04-16T20:48:36.312Z,12.27
2023-04-16T20:51:39.237Z,11.73
2023-04-16T20:54:42.483Z,12.40
2023-04-16T20:57:45.446Z,11.90
2023-04-16T21:00:50.840Z,12.37
2023-04-16T21:03:55.409Z,11.70
2023-04-16T21:06:58.637Z,11.57
2023-04-16T21:10:01.706Z,12.80
2023-04-16T21:13:04.684Z,12.03
2023-04-16T21:16:09.770Z,12.33
2023-04-16T21:19:14.150Z,12.53
2023-04-16T21:22:17.098Z,12.17
2023-04-16T21:25:20.373Z,12.43
2023-04-16T21:28:23.414Z,13.17
2023-04-16T21:31:26.630Z,11.97
2023-04-16T21:34:31.039Z,13.50
2023-04-16T21:37:34.118Z,12.70
2023-04-16T21:40:37.125Z,12.67
2023-04-16T21:43:40.297Z,13.67
2023-04-16T21:46:43.393Z,12.97
2023-04-16T21:49:47.739Z,14.17
2023-04-16T21:52:52.469Z,12.40
2023-04-16T21:55:55.678Z,13.87
2023-04-16T21:58:58.724Z,13.50
2023-04-16T22:02:01.915Z,12.83
2023-04-16T22:05:07.378Z,13.80
2023-04-16T22:08:23.216Z,12.53
2023-04-16T22:11:27.370Z,15.53
2023-04-16T22:14:31.866Z,12.43
2023-04-16T22:17:35.247Z,14.23
2023-04-16T22:20:40.058Z,14.13
2023-04-16T22:23:43.060Z,14.13
2023-04-16T22:26:46.075Z,14.13
2023-04-16T22:29:49.330Z,14.53
2023-04-16T22:32:52.444Z,14.33
2023-04-16T22:35:56.865Z,14.57
2023-04-16T22:39:00.418Z,13.57
2023-04-16T22:42:03.478Z,13.30
2023-04-16T22:45:08.236Z,13.33
2023-04-16T22:48:11.244Z,14.53
2023-04-16T22:51:15.669Z,12.87
2023-04-16T22:54:18.665Z,13.67
2023-04-16T22:57:24.771Z,13.33
2023-04-16T23:00:28.406Z,13.87
2023-04-16T23:03:31.881Z,14.90
2023-04-16T23:06:36.222Z,13.87
2023-04-16T23:09:39.221Z,13.77
2023-04-16T23:12:42.212Z,12.50
2023-04-16T23:15:47.226Z,14.07
2023-04-16T23:18:50.349Z,14.17
2023-04-16T23:21:54.745Z,14.23
2023-04-16T23:24:57.773Z,14.40
2023-04-16T23:28:00.766Z,13.07
2023-04-16T23:31:05.360Z,14.80
2023-04-16T23:34:10.252Z,14.73
2023-04-16T23:37:14.599Z,12.93
2023-04-16T23:40:17.676Z,15.10
2023-04-16T23:43:20.649Z,14.03
2023-04-16T23:46:23.670Z,13.20
2023-04-16T23:49:26.805Z,12.73
2023-04-16T23:52:31.250Z,13.43
2023-04-16T23:55:34.261Z,12.77
2023-04-16T23:58:37.227Z,13.40
